Time;durP1;ratioP1;P1;durP2;ratioP2;P2;SDS_P1;SDS_P2;PMS_P1;PMS_P2;Temp;Humidity;BMP_temperature;BMP_pressure;BME280_temperature;BME280_humidity;BME280_pressure;Samples;Min_cycle;Max_cycle;Signal;HPM_P1;HPM_P2
2022/05/24 00:00:29;;;;;;;6.57;0.95;;;16.90;99.90;;;;;;5036588;28;20111;-82
2022/05/24 00:02:55;;;;;;;1.17;0.70;;;16.80;99.90;;;;;;5041214;28;20048;-78
2022/05/24 00:05:22;;;;;;;1.23;0.75;;;;;;;;;;5044841;28;20048;-80
2022/05/24 00:07:48;;;;;;;1.55;0.60;;;16.60;99.90;;;;;;5043542;28;20021;-81
2022/05/24 00:10:16;;;;;;;1.38;0.63;;;;;;;;;;5040918;28;20032;-81
2022/05/24 00:12:42;;;;;;;0.63;0.55;;;;;;;;;;5042139;28;20020;-82
2022/05/24 00:15:30;;;;;;;1.30;0.70;;;;;;;;;;5041971;28;20063;-79
2022/05/24 00:17:58;;;;;;;1.30;0.55;;;;;;;;;;5036994;28;20040;-80
2022/05/24 00:20:25;;;;;;;1.70;0.65;;;;;;;;;;5039773;28;20235;-79
2022/05/24 00:22:52;;;;;;;1.15;0.75;;;;;;;;;;5040194;28;20029;-81
2022/05/24 00:25:18;;;;;;;1.10;0.60;;;;;;;;;;5043139;28;20025;-81
2022/05/24 00:27:44;;;;;;;1.50;0.73;;;16.80;99.90;;;;;;5041713;28;20128;-80
2022/05/24 00:30:10;;;;;;;2.15;0.80;;;;;;;;;;5039276;28;20040;-83
2022/05/24 00:32:36;;;;;;;0.98;0.68;;;;;;;;;;5044053;28;20033;-79
2022/05/24 00:35:02;;;;;;;1.75;0.82;;;;;;;;;;5044490;28;20114;-80
2022/05/24 00:37:28;;;;;;;1.05;0.65;;;16.70;99.90;;;;;;5042198;28;20034;-80
2022/05/24 00:39:54;;;;;;;1.95;0.95;;;;;;;;;;5047452;28;20052;-80
2022/05/24 00:42:23;;;;;;;1.75;0.70;;;;;;;;;;5044672;28;20059;-79
2022/05/24 00:44:52;;;;;;;0.98;0.68;;;;;;;;;;5042033;28;20029;-80
2022/05/24 00:47:33;;;;;;;1.38;0.80;;;16.60;99.90;;;;;;5046908;28;20056;-79
2022/05/24 00:50:05;;;;;;;1.77;0.73;;;16.50;99.90;;;;;;5041072;28;20408;-82
2022/05/24 00:52:56;;;;;;;1.58;0.70;;;16.80;99.90;;;;;;5047827;28;20255;-79
2022/05/24 00:55:22;;;;;;;2.05;0.80;;;16.70;99.90;;;;;;5033874;28;20036;-80
2022/05/24 00:58:07;;;;;;;1.98;0.63;;;16.50;99.90;;;;;;5042530;28;20040;-79
2022/05/24 01:00:33;;;;;;;0.90;0.70;;;16.60;99.90;;;;;;5043259;28;20021;-78
2022/05/24 01:02:59;;;;;;;2.30;0.75;;;;;;;;;;5042320;28;20436;-79
2022/05/24 01:05:27;;;;;;;0.90;0.50;;;;;;;;;;5042370;28;20037;-79
2022/05/24 01:07:53;;;;;;;2.92;0.95;;;;;;;;;;5042687;28;20025;-80
2022/05/24 01:10:24;;;;;;;1.95;0.80;;;;;;;;;;5045762;28;20850;-81
2022/05/24 01:13:03;;;;;;;0.70;0.47;;;16.60;99.90;;;;;;5044927;28;20436;-80
2022/05/24 01:15:29;;;;;;;1.20;0.82;;;;;;;;;;5041955;28;20131;-80
2022/05/24 01:17:58;;;;;;;1.20;0.90;;;;;;;;;;5042011;28;20021;-79
2022/05/24 01:20:24;;;;;;;1.40;0.85;;;;;;;;;;5045286;28;20033;-79
2022/05/24 01:23:11;;;;;;;5.15;1.40;;;16.40;99.90;;;;;;5040880;28;20340;-81
2022/05/24 01:25:58;;;;;;;2.55;0.70;;;16.00;99.90;;;;;;5043177;28;20039;-80
2022/05/24 01:28:26;;;;;;;7.25;0.90;;;;;;;;;;5047146;28;20025;-78
2022/05/24 01:30:54;;;;;;;4.90;1.00;;;16.50;99.90;;;;;;5044792;28;20025;-80
2022/05/24 01:36:09;;;;;;;1.55;0.60;;;16.70;99.90;;;;;;5041130;28;20153;-80
2022/05/24 01:38:36;;;;;;;2.30;1.33;;;;;;;;;;5043153;28;20113;-79
2022/05/24 01:41:02;;;;;;;1.90;1.05;;;16.30;99.90;;;;;;5048054;28;20491;-80
2022/05/24 01:43:28;;;;;;;1.15;0.80;;;16.50;99.90;;;;;;5042833;28;20551;-80
2022/05/24 01:46:06;;;;;;;2.78;1.38;;;;;;;;;;5043670;28;20518;-79
2022/05/24 01:48:36;;;;;;;2.03;1.00;;;;;;;;;;5049656;28;20029;-81
2022/05/24 01:51:03;;;;;;;2.15;0.80;;;;;;;;;;5045843;28;20130;-83
2022/05/24 01:53:37;;;;;;;1.48;0.90;;;16.40;99.90;;;;;;5045209;28;20072;-81
2022/05/24 01:56:05;;;;;;;2.17;1.27;;;;;;;;;;5045175;28;20065;-78
2022/05/24 01:58:32;;;;;;;4.35;1.40;;;;;;;;;;5043082;28;20075;-80
2022/05/24 02:01:04;;;;;;;1.20;1.10;;;;;;;;;;5043064;28;20029;-81
2022/05/24 02:03:30;;;;;;;2.63;1.40;;;;;;;;;;5045072;28;20036;-79
2022/05/24 02:05:58;;;;;;;2.03;0.98;;;;;;;;;;5048007;28;20032;-80
2022/05/24 02:08:24;;;;;;;1.88;1.48;;;;;;;;;;5045281;28;20024;-80
2022/05/24 02:10:59;;;;;;;2.33;1.33;;;15.00;99.90;;;;;;5049863;28;20200;-80
2022/05/24 02:13:30;;;;;;;1.80;1.25;;;15.10;99.90;;;;;;5047028;28;20096;-80
2022/05/24 02:16:02;;;;;;;6.75;1.58;;;15.00;99.90;;;;;;5044074;28;20036;-81
2022/05/24 02:18:29;;;;;;;1.40;1.30;;;15.10;99.90;;;;;;5042013;28;20094;-80
2022/05/24 02:20:55;;;;;;;1.60;1.02;;;15.10;99.90;;;;;;5041260;28;20037;-80
2022/05/24 02:23:21;;;;;;;3.95;2.25;;;16.30;99.90;;;;;;5048785;28;20035;-80
2022/05/24 02:25:52;;;;;;;4.65;1.52;;;;;;;;;;5051413;28;20025;-79
2022/05/24 02:28:19;;;;;;;2.30;1.15;;;;;;;;;;5045875;28;20124;-80
2022/05/24 02:30:56;;;;;;;2.78;1.67;;;15.00;99.90;;;;;;5041073;28;20025;-81
2022/05/24 02:33:23;;;;;;;2.97;1.40;;;;;;;;;;5040110;28;20120;-80
2022/05/24 02:35:49;;;;;;;3.38;1.75;;;;;;;;;;5047351;28;20096;-81
2022/05/24 02:38:15;;;;;;;2.35;1.50;;;;;;;;;;5051465;28;20031;-82
2022/05/24 02:43:27;;;;;;;3.35;1.35;;;;;;;;;;5046147;28;20031;-80
2022/05/24 02:45:52;;;;;;;3.25;1.60;;;14.80;99.90;;;;;;5032326;28;20033;-81
2022/05/24 02:48:18;;;;;;;3.92;2.08;;;;;;;;;;5039490;28;20113;-79
2022/05/24 02:50:44;;;;;;;2.80;1.30;;;;;;;;;;5038409;28;20489;-80
2022/05/24 02:53:10;;;;;;;2.75;1.48;;;;;;;;;;5046658;28;20484;-81
2022/05/24 02:55:37;;;;;;;2.55;1.77;;;;;;;;;;5041879;28;20035;-82
2022/05/24 02:58:03;;;;;;;3.17;1.92;;;;;;;;;;5043970;28;20025;-80
2022/05/24 03:00:29;;;;;;;2.08;1.13;;;;;;;;;;5040014;28;20036;-80
2022/05/24 03:02:55;;;;;;;1.85;1.00;;;;;;;;;;5037518;28;20024;-80
2022/05/24 03:05:22;;;;;;;3.30;1.50;;;;;;;;;;5043208;28;20044;-80
2022/05/24 03:10:33;;;;;;;3.67;1.88;;;14.50;99.90;;;;;;5040046;28;20051;-81
2022/05/24 03:15:44;;;;;;;3.33;1.80;;;;;;;;;;5039355;28;20432;-80
2022/05/24 03:18:12;;;;;;;4.13;2.30;;;14.60;99.90;;;;;;5042128;28;20041;-81
2022/05/24 03:20:38;;;;;;;2.58;1.75;;;;;;;;;;5043977;28;20025;-79
2022/05/24 03:23:04;;;;;;;3.55;2.30;;;;;;;;;;5046134;28;20059;-80
2022/05/24 03:25:31;;;;;;;3.58;2.42;;;;;;;;;;5044733;28;20028;-80
2022/05/24 03:27:58;;;;;;;5.50;2.97;;;14.40;99.90;;;;;;5044251;28;20032;-81
2022/05/24 03:30:25;;;;;;;3.08;2.03;;;;;;;;;;5045774;28;20047;-81
2022/05/24 03:32:51;;;;;;;3.40;2.10;;;;;;;;;;5050259;28;20080;-81
2022/05/24 03:35:17;;;;;;;3.28;1.80;;;;;;;;;;5046400;28;20537;-81
2022/05/24 03:37:43;;;;;;;3.33;2.03;;;;;;;;;;5047688;28;20064;-80
2022/05/24 03:40:09;;;;;;;3.28;1.90;;;;;;;;;;5045876;28;20048;-79
2022/05/24 03:42:36;;;;;;;2.75;1.90;;;;;;;;;;5043370;28;20631;-81
2022/05/24 03:45:02;;;;;;;4.63;2.38;;;;;;;;;;5044397;28;20567;-81
2022/05/24 03:47:28;;;;;;;4.30;2.42;;;;;;;;;;5044176;28;20029;-80
2022/05/24 03:49:54;;;;;;;3.40;2.58;;;;;;;;;;5034334;28;20032;-80
2022/05/24 03:52:20;;;;;;;4.05;2.28;;;;;;;;;;5040042;28;20037;-81
2022/05/24 03:54:46;;;;;;;3.90;2.28;;;;;;;;;;5038836;28;20041;-80
2022/05/24 03:59:57;;;;;;;3.88;2.08;;;;;;;;;;5042139;28;20055;-83
2022/05/24 04:02:23;;;;;;;4.75;2.03;;;;;;;;;;5036724;28;20112;-83
2022/05/24 04:04:48;;;;;;;12.25;2.10;;;;;;;;;;5056347;28;20554;-81
2022/05/24 04:07:15;;;;;;;3.08;1.42;;;;;;;;;;5042034;28;20029;-80
2022/05/24 04:09:41;;;;;;;5.50;3.17;;;;;;;;;;5044339;28;20051;-81
2022/05/24 04:12:08;;;;;;;3.90;2.05;;;;;;;;;;5043889;28;20413;-81
2022/05/24 04:14:34;;;;;;;3.78;2.20;;;;;;;;;;5040020;28;20047;-80
2022/05/24 04:17:00;;;;;;;5.93;2.28;;;14.80;99.90;;;;;;5039318;28;20057;-80
2022/05/24 04:19:26;;;;;;;5.60;3.05;;;;;;;;;;5043052;28;20044;-80
2022/05/24 04:21:52;;;;;;;3.78;2.53;;;;;;;;;;5036394;28;20040;-82
2022/05/24 04:24:19;;;;;;;9.05;2.25;;;;;;;;;;5046896;28;20024;-82
2022/05/24 04:26:45;;;;;;;5.25;2.97;;;;;;;;;;5047651;28;20033;-80
2022/05/24 04:29:12;;;;;;;4.38;2.60;;;;;;;;;;5044958;28;20040;-80
2022/05/24 04:31:38;;;;;;;5.03;2.78;;;;;;;;;;5042028;28;20029;-78
2022/05/24 04:34:04;;;;;;;6.45;2.55;;;;;;;;;;5041402;28;20045;-80
2022/05/24 04:36:31;;;;;;;3.75;2.22;;;;;;;;;;5040286;28;20040;-78
2022/05/24 04:38:57;;;;;;;3.83;2.38;;;15.30;99.90;;;;;;5038585;28;20116;-78
2022/05/24 04:44:07;;;;;;;5.25;2.80;;;16.30;99.90;;;;;;5026930;28;20047;-77
2022/05/24 04:49:23;;;;;;;4.68;2.85;;;16.00;99.90;;;;;;5029104;28;20094;-80
2022/05/24 04:51:53;;;;;;;4.47;2.60;;;;;;;;;;5037786;28;20029;-79
2022/05/24 04:54:19;;;;;;;5.20;2.60;;;;;;;;;;5036206;28;20037;-77
2022/05/24 04:56:46;;;;;;;3.65;2.45;;;;;;;;;;5044591;28;20028;-81
2022/05/24 04:59:12;;;;;;;7.93;2.83;;;16.50;99.90;;;;;;5038879;28;20033;-78
2022/05/24 05:01:38;;;;;;;3.72;2.25;;;;;;;;;;5034115;28;20029;-77
2022/05/24 05:04:04;;;;;;;3.75;1.70;;;;;;;;;;5002508;28;20042;-79
2022/05/24 05:06:30;;;;;;;5.80;2.03;;;;;;;;;;4997571;28;20425;-77
2022/05/24 05:08:57;;;;;;;9.55;2.67;;;;;;;;;;4998829;28;20033;-81
2022/05/24 05:11:23;;;;;;;3.33;2.03;;;;;;;;;;4999670;28;20030;-80
2022/05/24 05:13:48;;;;;;;4.85;2.25;;;;;;;;;;4998006;28;20056;-79
2022/05/24 05:16:14;;;;;;;2.50;1.52;;;;;;;;;;4998209;28;20029;-79
2022/05/24 05:18:40;;;;;;;2.10;1.33;;;;;;;;;;5001227;28;20561;-79
2022/05/24 05:21:06;;;;;;;3.78;1.63;;;;;;;;;;5000388;28;20120;-82
2022/05/24 05:23:32;;;;;;;;;;;;;;;;;;5007521;28;20061;-81
2022/05/24 05:25:58;;;;;;;1.52;1.13;;;;;;;;;;5001476;28;19913;-78
2022/05/24 05:28:24;;;;;;;2.85;1.75;;;;;;;;;;5000057;28;20569;-79
2022/05/24 05:33:35;;;;;;;2.35;1.45;;;;;;;;;;5006665;28;20092;-79
2022/05/24 05:36:01;;;;;;;3.03;1.50;;;;;;;;;;5003209;28;20037;-79
2022/05/24 05:38:27;;;;;;;2.13;1.17;;;;;;;;;;5006390;28;20600;-81
2022/05/24 05:40:54;;;;;;;2.28;1.23;;;17.00;99.90;;;;;;5008670;28;20053;-79
2022/05/24 05:43:20;;;;;;;2.30;1.00;;;;;;;;;;5000710;28;20400;-77
2022/05/24 05:45:57;;;;;;;3.78;1.70;;;17.10;99.90;;;;;;5007187;28;20113;-78
2022/05/24 05:48:23;;;;;;;;;;;;;;;;;;4999496;28;20033;-79
2022/05/24 05:50:48;;;;;;;;;;;;;;;;;;5006080;28;19925;-78
2022/05/24 05:53:14;;;;;;;;;;;17.30;99.90;;;;;;4999096;28;20011;-78
2022/05/24 05:55:43;;;;;;;;;;;;;;;;;;5003094;28;19944;-78
2022/05/24 05:58:09;;;;;;;;;;;;;;;;;;5009162;28;20329;-78
2022/05/24 06:00:35;;;;;;;;;;;17.70;99.90;;;;;;5002331;28;19909;-78
2022/05/24 06:03:01;;;;;;;;;;;;;;;;;;5005721;28;19925;-78
2022/05/24 06:05:27;;;;;;;;;;;;;;;;;;5010168;28;20408;-78
2022/05/24 06:07:54;;;;;;;;;;;18.00;99.90;;;;;;5008488;28;19920;-78
2022/05/24 06:10:19;;;;;;;;;;;18.60;99.90;;;;;;4998664;28;19925;-79
2022/05/24 06:12:45;;;;;;;2.78;1.30;;;;;;;;;;5007521;28;19909;-79
2022/05/24 06:15:11;;;;;;;2.40;1.50;;;;;;;;;;5006720;28;20042;-79
2022/05/24 06:17:45;;;;;;;3.97;1.35;;;18.80;99.90;;;;;;5006784;28;20037;-77
2022/05/24 06:20:12;;;;;;;1.55;0.88;;;;;;;;;;5006455;28;20030;-78
2022/05/24 06:22:38;;;;;;;1.98;0.77;;;;;;;;;;5002106;28;20076;-79
2022/05/24 06:25:05;;;;;;;1.52;0.90;;;;;;;;;;5000738;28;20041;-79
2022/05/24 06:27:31;;;;;;;1.58;0.88;;;;;;;;;;5010395;28;20461;-78
2022/05/24 06:29:57;;;;;;;3.03;1.40;;;;;;;;;;5003228;28;20038;-80
2022/05/24 06:32:23;;;;;;;2.20;1.02;;;;;;;;;;5005495;28;20037;-80
2022/05/24 06:34:51;;;;;;;1.52;0.88;;;;;;;;;;5007243;28;20033;-79
2022/05/24 06:37:18;;;;;;;1.83;1.13;;;;;;;;;;5004803;28;20092;-78
2022/05/24 06:39:44;;;;;;;1.67;0.90;;;;;;;;;;5006336;28;20394;-79
2022/05/24 06:42:10;;;;;;;1.95;1.20;;;;;;;;;;5009879;28;20502;-79
2022/05/24 06:44:36;;;;;;;4.88;1.10;;;;;;;;;;5007703;28;20082;-78
2022/05/24 06:47:01;;;;;;;2.35;1.30;;;17.30;99.90;;;;;;5010723;28;20645;-78
2022/05/24 06:49:27;;;;;;;2.30;0.82;;;18.70;99.90;;;;;;5006536;28;20034;-77
2022/05/24 06:51:52;;;;;;;2.65;0.80;;;20.00;99.90;;;;;;5013085;28;20504;-79
2022/05/24 06:54:19;;;;;;;2.20;0.88;;;22.10;99.90;;;;;;5013940;28;20133;-78
2022/05/24 06:56:45;;;;;;;1.48;0.95;;;23.30;99.90;;;;;;5011408;28;20046;-78
2022/05/24 07:04:39;;;;;;;;;;;26.40;97.30;;;;;;5011675;28;19932;-78
2022/05/24 07:07:05;;;;;;;;;;;25.60;97.10;;;;;;5009480;28;20257;-78
2022/05/24 07:09:31;;;;;;;;;;;;;;;;;;5010099;28;19996;-79
2022/05/24 07:11:57;;;;;;;0.77;0.38;;;;;;;;;;5013035;28;19920;-78
2022/05/24 07:14:23;;;;;;;2.40;0.68;;;;;;;;;;5001631;28;20050;-77
2022/05/24 07:16:49;;;;;;;2.83;1.67;;;;;;;;;;5002821;28;20115;-78
2022/05/24 07:19:15;;;;;;;0.80;0.40;;;;;;;;;;4999781;28;20022;-78
2022/05/24 07:21:41;;;;;;;0.80;0.50;;;;;;;;;;5004559;28;20041;-79
2022/05/24 07:24:07;;;;;;;1.48;0.60;;;;;;;;;;5008159;28;20045;-79
2022/05/24 07:26:33;;;;;;;2.75;0.70;;;;;;;;;;5016720;28;20030;-79
2022/05/24 07:28:59;;;;;;;0.77;0.30;;;;;;;;;;5012948;28;20022;-78
2022/05/24 07:31:25;;;;;;;0.68;0.32;;;;;;;;;;5014061;28;20399;-81
2022/05/24 07:33:51;;;;;;;1.95;0.85;;;;;;;;;;5014141;28;20049;-80
2022/05/24 07:36:16;;;;;;;0.52;0.30;;;;;;;;;;5014645;28;20030;-79
2022/05/24 07:38:43;;;;;;;0.70;0.30;;;;;;;;;;5021741;28;20033;-80
2022/05/24 07:46:37;;;;;;;;;;;19.50;99.90;;;;;;5014354;28;20099;-79
2022/05/24 07:49:04;;;;;;;0.38;0.15;;;;;;;;;;5002691;28;19910;-78
2022/05/24 07:51:30;;;;;;;0.10;0.10;;;;;;;;;;5004158;28;20061;-78
2022/05/24 07:53:56;;;;;;;0.32;0.13;;;;;;;;;;5006625;28;21519;-79
2022/05/24 07:56:22;;;;;;;;;;;;;;;;;;5009459;28;20033;-77
2022/05/24 07:58:48;;;;;;;6.55;0.10;;;;;;;;;;5000536;28;19986;-79
2022/05/24 08:01:15;;;;;;;0.80;0.10;;;;;;;;;;5007003;28;20057;-77
2022/05/24 08:03:42;;;;;;;1.00;0.08;;;16.70;99.90;;;;;;5005756;28;20422;-77
2022/05/24 08:06:10;;;;;;;1.27;0.20;;;;;;;;;;5014165;28;20030;-78
2022/05/24 08:08:36;;;;;;;0.52;0.20;;;;;;;;;;5002931;28;20038;-78
2022/05/24 08:11:02;;;;;;;0.10;0.10;;;;;;;;;;5011180;28;20034;-79
2022/05/24 08:13:28;;;;;;;0.00;0.00;;;;;;;;;;5004501;28;20383;-79
2022/05/24 08:15:54;;;;;;;0.00;0.00;;;;;;;;;;5016561;28;20091;-79
2022/05/24 08:18:22;;;;;;;0.10;0.03;;;;;;;;;;5012864;28;20030;-79
2022/05/24 08:20:48;;;;;;;2.25;0.28;;;;;;;;;;5017470;28;20125;-78
2022/05/24 08:23:15;;;;;;;0.03;0.03;;;;;;;;;;5013564;28;20093;-79
2022/05/24 08:25:41;;;;;;;6.63;0.20;;;;;;;;;;5012977;28;20029;-80
2022/05/24 08:28:07;;;;;;;0.32;0.10;;;17.80;99.90;;;;;;5008922;28;20037;-81
2022/05/24 08:30:35;;;;;;;2.22;0.10;;;;;;;;;;5014629;28;20026;-78
2022/05/24 08:33:04;;;;;;;0.25;0.10;;;;;;;;;;5012801;28;20034;-79
2022/05/24 08:35:30;;;;;;;1.73;0.10;;;;;;;;;;5021356;28;20654;-80
2022/05/24 08:37:56;;;;;;;0.45;0.00;;;;;;;;;;5019439;28;20026;-80
2022/05/24 08:40:22;;;;;;;0.65;0.32;;;;;;;;;;5019338;28;20141;-79
2022/05/24 08:43:07;;;;;;;0.20;0.08;;;;;;;;;;5002100;28;20252;-77
2022/05/24 08:48:28;;;;;;;;;;;20.30;99.90;;;;;;4967986;28;20080;-79
2022/05/24 08:50:54;;;;;;;;;;;;;;;;;;5014725;28;20672;-79
2022/05/24 08:53:33;;;;;;;;;;;20.00;99.90;;;;;;5012234;28;19993;-80
2022/05/24 08:55:59;;;;;;;;;;;20.70;99.90;;;;;;5011807;28;19909;-80
2022/05/24 08:58:25;;;;;;;;;;;;;;;;;;5012664;28;19921;-81
2022/05/24 09:00:50;;;;;;;;;;;19.50;99.90;;;;;;5014528;28;19917;-78
2022/05/24 09:03:16;;;;;;;;;;;;;;;;;;5013721;28;19928;-78
2022/05/24 09:05:47;;;;;;;;;;;18.60;99.90;;;;;;5019942;28;20020;-78
2022/05/24 09:08:32;;;;;;;;;;;18.60;99.90;;;;;;5021312;28;19932;-78
2022/05/24 09:11:15;;;;;;;;;;;19.10;99.90;;;;;;5018014;28;19909;-78
2022/05/24 09:14:03;;;;;;;0.10;0.10;;;18.90;99.90;;;;;;5011199;28;20292;-78
2022/05/24 09:16:54;;;;;;;0.10;0.08;;;;;;;;;;5018265;28;20029;-78
2022/05/24 09:19:25;;;;;;;1.50;0.15;;;18.00;99.90;;;;;;5008339;28;20129;-78
2022/05/24 09:21:54;;;;;;;2.70;0.10;;;;;;;;;;5016257;28;20033;-79
2022/05/24 09:24:41;;;;;;;0.52;0.20;;;18.90;99.90;;;;;;5012575;28;20038;-78
2022/05/24 09:27:09;;;;;;;0.73;0.25;;;;;;;;;;5006822;28;20030;-79
2022/05/24 09:29:54;;;;;;;0.50;0.20;;;;;;;;;;5012564;28;20022;-78
2022/05/24 09:32:21;;;;;;;0.40;0.10;;;19.70;99.90;;;;;;5007744;28;20095;-79
2022/05/24 09:35:04;;;;;;;0.10;0.10;;;19.30;99.90;;;;;;5016392;28;20487;-79
2022/05/24 09:37:30;;;;;;;3.10;0.20;;;;;;;;;;5014954;28;20029;-79
2022/05/24 09:40:05;;;;;;;0.90;0.40;;;;;;;;;;5009524;28;20498;-79
2022/05/24 09:42:33;;;;;;;1.15;0.20;;;;;;;;;;5008552;28;20060;-79
2022/05/24 09:45:23;;;;;;;0.30;0.20;;;;;;;;;;5013368;28;20038;-80
2022/05/24 09:47:49;;;;;;;0.98;0.75;;;;;;;;;;5008066;28;20260;-79
2022/05/24 09:50:18;;;;;;;1.55;0.30;;;;;;;;;;5014296;28;20050;-79
2022/05/24 09:53:02;;;;;;;0.10;0.10;;;;;;;;;;5016361;28;20033;-79
2022/05/24 09:55:41;;;;;;;0.08;0.08;;;19.70;99.90;;;;;;5009406;28;20037;-79
2022/05/24 09:58:25;;;;;;;0.10;0.10;;;;;;;;;;5009305;28;20050;-79
2022/05/24 10:00:57;;;;;;;0.22;0.10;;;20.00;99.90;;;;;;5013073;28;20037;-80
2022/05/24 10:03:25;;;;;;;0.30;0.10;;;;;;;;;;5016828;28;20022;-79
2022/05/24 10:05:59;;;;;;;0.10;0.10;;;;;;;;;;5016045;28;20049;-79
2022/05/24 10:08:26;;;;;;;0.45;0.20;;;;;;;;;;5014436;28;20034;-79
2022/05/24 10:10:56;;;;;;;7.32;0.38;;;;;;;;;;5007611;28;20057;-79
2022/05/24 10:13:40;;;;;;;2.17;0.30;;;19.50;99.90;;;;;;5011854;28;20113;-79
2022/05/24 10:16:27;;;;;;;0.45;0.20;;;;;;;;;;5007338;28;20029;-80
2022/05/24 10:19:11;;;;;;;0.65;0.30;;;;;;;;;;5011428;28;20030;-81
2022/05/24 10:21:52;;;;;;;0.20;0.10;;;;;;;;;;5009255;28;20662;-78
2022/05/24 10:24:37;;;;;;;0.20;0.10;;;;;;;;;;5002670;28;20752;-80
2022/05/24 10:27:13;;;;;;;3.63;0.10;;;;;;;;;;5006318;28;20112;-79
2022/05/24 10:29:52;;;;;;;0.10;0.10;;;20.70;99.90;;;;;;5011241;28;20494;-78
2022/05/24 10:38:49;;;;;;;0.75;0.22;;;;;;;;;;5009952;28;20112;-80
2022/05/24 10:41:17;;;;;;;0.08;0.08;;;;;;;;;;5004923;28;20112;-78
2022/05/24 10:43:43;;;;;;;3.35;0.15;;;;;;;;;;5009011;28;20042;-77
2022/05/24 10:46:18;;;;;;;0.38;0.10;;;;;;;;;;5006454;28;20041;-79
2022/05/24 10:49:22;;;;;;;0.68;0.15;;;;;;;;;;5006691;28;20037;-79
2022/05/24 10:51:54;;;;;;;0.20;0.10;;;;;;;;;;4972730;28;20038;-78
2022/05/24 10:54:20;;;;;;;0.35;0.20;;;;;;;;;;4969643;28;20392;-77
2022/05/24 10:56:59;;;;;;;0.22;0.20;;;;;;;;;;4991403;28;20042;-78
2022/05/24 10:59:25;;;;;;;0.20;0.10;;;;;;;;;;5011700;28;20030;-78
2022/05/24 11:01:59;;;;;;;0.25;0.20;;;;;;;;;;5009823;28;20045;-79
2022/05/24 11:04:31;;;;;;;0.22;0.20;;;;;;;;;;4999635;28;20065;-79
2022/05/24 11:07:11;;;;;;;0.77;0.25;;;20.80;99.90;;;;;;5009390;28;20121;-80
2022/05/24 11:09:46;;;;;;;0.10;0.10;;;21.10;98.20;;;;;;5028571;28;20026;-80
2022/05/24 11:12:17;;;;;;;0.10;0.10;;;;;;;;;;5006789;28;20026;-81
2022/05/24 11:14:51;;;;;;;0.10;0.10;;;;;;;;;;5006703;28;20731;-80
2022/05/24 11:17:18;;;;;;;1.13;0.70;;;;;;;;;;5013610;28;20034;-79
2022/05/24 11:19:55;;;;;;;0.10;0.10;;;20.70;98.40;;;;;;5010384;28;20105;-80
2022/05/24 11:22:29;;;;;;;0.25;0.10;;;20.40;97.50;;;;;;5011858;28;20088;-80
2022/05/24 11:25:08;;;;;;;0.10;0.10;;;20.70;96.60;;;;;;5013338;28;20520;-79
2022/05/24 11:27:38;;;;;;;0.32;0.13;;;;;;;;;;5014539;28;20094;-79
2022/05/24 11:30:09;;;;;;;0.65;0.20;;;21.20;96.40;;;;;;5009459;28;20037;-81
2022/05/24 11:33:07;;;;;;;1.00;0.10;;;21.30;97.70;;;;;;5009398;28;20034;-79
2022/05/24 11:35:36;;;;;;;7.65;0.30;;;21.30;97.40;;;;;;5013864;28;20030;-79
2022/05/24 11:38:18;;;;;;;0.30;0.10;;;21.70;96.60;;;;;;5014453;28;20104;-79
2022/05/24 11:41:17;;;;;;;1.10;0.30;;;20.60;97.80;;;;;;5014453;28;20097;-78
2022/05/24 11:43:46;;;;;;;0.63;0.10;;;;;;;;;;5001584;28;20042;-78
2022/05/24 11:46:30;;;;;;;0.20;0.15;;;;;;;;;;5003910;28;20076;-77
2022/05/24 11:48:59;;;;;;;0.10;0.10;;;21.00;96.70;;;;;;5006058;28;20089;-79
2022/05/24 11:51:39;;;;;;;0.40;0.10;;;20.80;96.90;;;;;;5006438;28;20092;-79
2022/05/24 11:54:18;;;;;;;0.20;0.20;;;20.80;96.80;;;;;;5003784;28;20041;-79
2022/05/24 11:56:55;;;;;;;0.20;0.10;;;20.10;95.60;;;;;;5005522;28;20118;-79
2022/05/24 11:59:48;;;;;;;;;;;19.80;96.60;;;;;;5005956;28;20069;-78
2022/05/24 12:02:19;;;;;;;0.10;0.10;;;19.50;95.90;;;;;;5002691;28;20388;-79
2022/05/24 12:07:56;;;;;;;2.08;0.20;;;20.10;97.90;;;;;;5013768;28;20445;-78
2022/05/24 12:10:22;;;;;;;1.98;0.63;;;;;;;;;;5006304;28;20044;-79
2022/05/24 12:12:57;;;;;;;0.05;0.00;;;20.10;99.90;;;;;;5005806;28;20033;-79
2022/05/24 12:15:34;;;;;;;0.77;0.10;;;20.30;95.70;;;;;;5006831;28;20497;-79
2022/05/24 12:18:00;;;;;;;0.30;0.10;;;;;;;;;;4998868;28;20034;-80
2022/05/24 12:20:26;;;;;;;0.17;0.10;;;;;;;;;;4991808;28;20046;-78
2022/05/24 12:23:07;;;;;;;0.85;0.32;;;20.50;92.20;;;;;;5003678;28;20036;-78
2022/05/24 12:25:54;;;;;;;0.00;0.00;;;20.20;93.80;;;;;;5007918;28;20029;-77
2022/05/24 12:28:24;;;;;;;0.00;0.00;;;20.60;97.10;;;;;;4998387;28;20319;-78
2022/05/24 12:30:51;;;;;;;0.52;0.13;;;19.80;95.50;;;;;;5010579;28;20085;-80
2022/05/24 12:33:38;;;;;;;0.05;0.00;;;20.40;94.30;;;;;;5012140;28;20053;-79
2022/05/24 12:36:06;;;;;;;0.10;0.10;;;20.90;92.80;;;;;;5007474;28;20045;-77
2022/05/24 12:38:32;;;;;;;0.30;0.10;;;;;;;;;;5008881;28;20030;-78
2022/05/24 12:41:07;;;;;;;0.10;0.00;;;;;;;;;;5018771;28;20040;-78
2022/05/24 12:43:33;;;;;;;0.08;0.05;;;;;;;;;;5015091;28;20488;-78
2022/05/24 12:46:00;;;;;;;0.32;0.10;;;20.60;93.00;;;;;;5015323;28;20116;-78
2022/05/24 12:48:37;;;;;;;0.17;0.08;;;;;;;;;;5015620;28;20089;-78
2022/05/24 12:51:07;;;;;;;0.10;0.00;;;20.90;92.50;;;;;;5005164;28;20426;-79
2022/05/24 12:53:34;;;;;;;0.22;0.10;;;;;;;;;;5004389;28;20022;-79
2022/05/24 12:56:03;;;;;;;0.05;0.00;;;21.20;91.60;;;;;;5015190;28;20030;-79
2022/05/24 12:58:29;;;;;;;0.00;0.00;;;;;;;;;;5013152;28;20061;-78
2022/05/24 13:01:25;;;;;;;0.10;0.08;;;21.10;86.90;;;;;;5008713;28;20060;-79
2022/05/24 13:03:51;;;;;;;0.20;0.10;;;;;;;;;;5007258;28;20064;-80
2022/05/24 13:06:21;;;;;;;0.05;0.03;;;;;;;;;;5012653;28;20060;-79
2022/05/24 13:08:47;;;;;;;0.10;0.08;;;;;;;;;;5022672;28;20032;-80
2022/05/24 13:11:14;;;;;;;0.10;0.10;;;;;;;;;;5024615;28;20030;-79
2022/05/24 13:13:43;;;;;;;0.00;0.00;;;;;;;;;;5017074;28;20037;-81
2022/05/24 13:16:09;;;;;;;0.10;0.00;;;22.40;97.30;;;;;;5014087;28;20140;-80
2022/05/24 13:18:46;;;;;;;0.20;0.10;;;21.90;95.60;;;;;;5016488;28;20026;-78
2022/05/24 13:21:21;;;;;;;0.10;0.05;;;21.60;85.70;;;;;;5011205;28;20042;-81
2022/05/24 13:23:47;;;;;;;0.70;0.10;;;;;;;;;;5018338;28;20109;-80
2022/05/24 13:26:15;;;;;;;0.05;0.00;;;;;;;;;;5018136;28;20542;-80
2022/05/24 13:28:48;;;;;;;0.17;0.10;;;21.00;84.70;;;;;;5018381;28;20454;-81
2022/05/24 13:34:11;;;;;;;0.15;0.10;;;21.30;86.80;;;;;;5011028;28;20093;-80
2022/05/24 13:36:50;;;;;;;0.05;0.05;;;21.20;87.70;;;;;;5017604;28;20033;-81
2022/05/24 13:39:38;;;;;;;0.03;0.00;;;21.20;87.00;;;;;;5018763;28;20116;-80
2022/05/24 13:42:07;;;;;;;0.08;0.08;;;20.70;97.50;;;;;;5016654;28;20056;-80
2022/05/24 13:44:32;;;;;;;;;;;;;;;;;;5014806;28;20490;-81
2022/05/24 13:46:59;;;;;;;;;;;;;;;;;;5013108;28;19921;-80
2022/05/24 13:49:25;;;;;;;;;;;;;;;;;;5008438;28;19913;-81
2022/05/24 13:51:50;;;;;;;;;;;21.00;87.30;;;;;;5013942;28;20024;-80
2022/05/24 13:54:16;;;;;;;;;;;;;;;;;;5017394;28;20130;-79
2022/05/24 13:56:46;;;;;;;;;;;21.10;88.80;;;;;;5019297;28;19918;-79
2022/05/24 13:59:12;;;;;;;;;;;;;;;;;;5019414;28;19913;-80
2022/05/24 14:01:39;;;;;;;;;;;21.10;90.10;;;;;;5014803;28;19920;-79
2022/05/24 14:04:05;;;;;;;;;;;;;;;;;;5012517;28;19916;-80
2022/05/24 14:06:30;;;;;;;;;;;21.10;90.80;;;;;;5013377;28;19913;-79
2022/05/24 14:08:57;;;;;;;;;;;21.00;88.30;;;;;;5022467;28;20158;-79
2022/05/24 14:11:33;;;;;;;;;;;21.00;87.10;;;;;;5026583;28;19981;-80
2022/05/24 14:13:59;;;;;;;;;;;;;;;;;;5027394;28;19975;-79
2022/05/24 14:16:25;;;;;;;;;;;;;;;;;;5020711;28;19917;-80
2022/05/24 14:18:51;;;;;;;;;;;;;;;;;;5010928;28;19941;-79
2022/05/24 14:21:18;;;;;;;;;;;20.60;89.60;;;;;;5014413;28;19928;-79
2022/05/24 14:23:44;;;;;;;;;;;;;;;;;;5009554;28;19917;-80
2022/05/24 14:26:10;;;;;;;;;;;20.60;91.50;;;;;;4997910;28;19909;-79
2022/05/24 14:28:36;;;;;;;;;;;;;;;;;;5009025;28;19909;-79
2022/05/24 14:31:02;;;;;;;;;;;20.50;90.90;;;;;;5028106;28;20310;-79
2022/05/24 14:33:28;;;;;;;;;;;;;;;;;;5005673;28;20566;-78
2022/05/24 14:35:53;;;;;;;;;;;19.20;89.70;;;;;;5003278;28;19928;-77
2022/05/24 14:38:19;;;;;;;;;;;;;;;;;;5004279;28;19916;-84
2022/05/24 14:40:45;;;;;;;;;;;;;;;;;;5009461;28;19917;-79
2022/05/24 14:43:12;;;;;;;;;;;;;;;;;;5012883;28;19909;-79
2022/05/24 14:45:37;;;;;;;;;;;19.60;88.30;;;;;;5005742;28;19909;-79
2022/05/24 14:48:03;;;;;;;;;;;20.20;89.00;;;;;;5005359;28;20396;-80
2022/05/24 14:50:29;;;;;;;;;;;;;;;;;;5003469;28;19914;-79
2022/05/24 14:52:55;;;;;;;;;;;;;;;;;;5004721;28;19913;-83
2022/05/24 14:55:21;;;;;;;;;;;;;;;;;;4991500;28;20298;-80
2022/05/24 14:57:46;;;;;;;;;;;20.40;83.70;;;;;;5001070;28;19992;-77
2022/05/24 15:00:12;;;;;;;;;;;;;;;;;;5002082;28;19983;-80
2022/05/24 15:02:40;;;;;;;;;;;20.60;87.70;;;;;;4996764;28;19922;-80
2022/05/24 15:05:08;;;;;;;;;;;20.50;86.40;;;;;;4999898;28;20476;-80
2022/05/24 15:15:47;;;;;;;;;;;20.90;86.90;;;;;;4997260;28;20587;-80
2022/05/24 15:18:13;;;;;;;;;;;20.70;83.80;;;;;;5003756;28;19917;-79
2022/05/24 15:20:40;;;;;;;;;;;20.90;82.70;;;;;;5000510;28;19932;-78
2022/05/24 15:23:15;;;;;;;;;;;21.00;84.10;;;;;;4999641;28;19963;-80
2022/05/24 15:25:41;;;;;;;;;;;;;;;;;;4996139;28;19921;-82